sensor_id;sensor_type;location;lat;lon;timestamp;P1;durP1;ratioP1;P2;durP2;ratioP2
24008;SDS011;12217;50.792;4.372;2022-10-26T00:02:24;6.18;;;3.00;;
24008;SDS011;12217;50.792;4.372;2022-10-26T00:04:50;8.73;;;3.47;;
24008;SDS011;12217;50.792;4.372;2022-10-26T00:07:16;6.72;;;3.20;;
24008;SDS011;12217;50.792;4.372;2022-10-26T00:09:41;9.40;;;3.53;;
24008;SDS011;12217;50.792;4.372;2022-10-26T00:12:07;8.30;;;3.22;;
24008;SDS011;12217;50.792;4.372;2022-10-26T00:14:33;9.02;;;2.67;;
24008;SDS011;12217;50.792;4.372;2022-10-26T00:16:59;7.32;;;2.63;;
24008;SDS011;12217;50.792;4.372;2022-10-26T00:19:24;6.80;;;2.72;;
24008;SDS011;12217;50.792;4.372;2022-10-26T00:21:50;9.75;;;2.78;;
24008;SDS011;12217;50.792;4.372;2022-10-26T00:24:16;8.50;;;3.10;;
24008;SDS011;12217;50.792;4.372;2022-10-26T00:26:42;10.05;;;3.00;;
24008;SDS011;12217;50.792;4.372;2022-10-26T00:29:08;4.32;;;2.40;;
24008;SDS011;12217;50.792;4.372;2022-10-26T00:31:35;6.68;;;2.63;;
24008;SDS011;12217;50.792;4.372;2022-10-26T00:34:01;6.57;;;2.63;;
24008;SDS011;12217;50.792;4.372;2022-10-26T00:36:26;9.88;;;2.67;;
24008;SDS011;12217;50.792;4.372;2022-10-26T00:38:53;4.45;;;2.30;;
24008;SDS011;12217;50.792;4.372;2022-10-26T00:41:29;8.48;;;2.75;;
24008;SDS011;12217;50.792;4.372;2022-10-26T00:43:56;11.95;;;2.33;;
24008;SDS011;12217;50.792;4.372;2022-10-26T00:46:29;9.05;;;2.53;;
24008;SDS011;12217;50.792;4.372;2022-10-26T00:49:07;7.43;;;2.50;;
24008;SDS011;12217;50.792;4.372;2022-10-26T00:51:41;6.32;;;2.33;;
24008;SDS011;12217;50.792;4.372;2022-10-26T00:54:11;4.93;;;2.30;;
24008;SDS011;12217;50.792;4.372;2022-10-26T00:59:09;8.00;;;2.67;;
24008;SDS011;12217;50.792;4.372;2022-10-26T01:01:37;4.95;;;2.20;;
24008;SDS011;12217;50.792;4.372;2022-10-26T01:04:04;6.18;;;2.20;;
24008;SDS011;12217;50.792;4.372;2022-10-26T01:06:31;11.88;;;2.63;;
24008;SDS011;12217;50.792;4.372;2022-10-26T01:08:58;5.40;;;2.00;;
24008;SDS011;12217;50.792;4.372;2022-10-26T01:11:24;2.90;;;1.80;;
24008;SDS011;12217;50.792;4.372;2022-10-26T01:13:50;5.25;;;1.90;;
24008;SDS011;12217;50.792;4.372;2022-10-26T01:16:37;8.88;;;2.00;;
24008;SDS011;12217;50.792;4.372;2022-10-26T01:21:50;4.15;;;1.95;;
24008;SDS011;12217;50.792;4.372;2022-10-26T01:37:34;6.07;;;2.10;;
24008;SDS011;12217;50.792;4.372;2022-10-26T01:40:10;5.15;;;1.75;;
24008;SDS011;12217;50.792;4.372;2022-10-26T01:42:45;7.03;;;2.03;;
24008;SDS011;12217;50.792;4.372;2022-10-26T01:45:15;4.43;;;1.97;;
24008;SDS011;12217;50.792;4.372;2022-10-26T01:47:41;5.72;;;2.00;;
24008;SDS011;12217;50.792;4.372;2022-10-26T01:50:08;7.28;;;1.50;;
24008;SDS011;12217;50.792;4.372;2022-10-26T01:52:35;5.20;;;1.48;;
24008;SDS011;12217;50.792;4.372;2022-10-26T01:55:01;7.45;;;1.90;;
24008;SDS011;12217;50.792;4.372;2022-10-26T01:57:50;3.40;;;1.48;;
24008;SDS011;12217;50.792;4.372;2022-10-26T02:00:16;8.52;;;1.58;;
24008;SDS011;12217;50.792;4.372;2022-10-26T02:02:53;9.13;;;1.80;;
24008;SDS011;12217;50.792;4.372;2022-10-26T02:05:37;4.40;;;1.75;;
24008;SDS011;12217;50.792;4.372;2022-10-26T02:08:31;7.03;;;1.67;;
24008;SDS011;12217;50.792;4.372;2022-10-26T02:22:05;4.90;;;1.50;;
24008;SDS011;12217;50.792;4.372;2022-10-26T02:24:49;3.72;;;1.38;;
24008;SDS011;12217;50.792;4.372;2022-10-26T02:27:20;3.15;;;1.35;;
24008;SDS011;12217;50.792;4.372;2022-10-26T02:29:50;4.72;;;1.75;;
24008;SDS011;12217;50.792;4.372;2022-10-26T02:32:18;3.40;;;1.30;;
24008;SDS011;12217;50.792;4.372;2022-10-26T02:34:46;7.25;;;1.70;;
24008;SDS011;12217;50.792;4.372;2022-10-26T02:37:14;2.10;;;1.40;;
24008;SDS011;12217;50.792;4.372;2022-10-26T02:39:43;5.60;;;1.48;;
24008;SDS011;12217;50.792;4.372;2022-10-26T02:42:10;3.65;;;1.40;;
24008;SDS011;12217;50.792;4.372;2022-10-26T02:44:47;5.20;;;1.70;;
24008;SDS011;12217;50.792;4.372;2022-10-26T02:47:14;3.88;;;1.58;;
24008;SDS011;12217;50.792;4.372;2022-10-26T02:49:41;5.07;;;1.55;;
24008;SDS011;12217;50.792;4.372;2022-10-26T02:52:14;4.28;;;1.33;;
24008;SDS011;12217;50.792;4.372;2022-10-26T02:58:08;3.28;;;1.50;;
24008;SDS011;12217;50.792;4.372;2022-10-26T03:00:16;3.15;;;1.27;;
24008;SDS011;12217;50.792;4.372;2022-10-26T03:02:43;4.00;;;1.30;;
24008;SDS011;12217;50.792;4.372;2022-10-26T03:05:27;5.13;;;1.95;;
24008;SDS011;12217;50.792;4.372;2022-10-26T03:07:56;5.63;;;1.83;;
24008;SDS011;12217;50.792;4.372;2022-10-26T03:10:22;4.07;;;1.40;;
24008;SDS011;12217;50.792;4.372;2022-10-26T03:12:48;5.72;;;1.63;;
24008;SDS011;12217;50.792;4.372;2022-10-26T03:15:13;4.15;;;1.42;;
24008;SDS011;12217;50.792;4.372;2022-10-26T03:17:39;2.83;;;1.60;;
24008;SDS011;12217;50.792;4.372;2022-10-26T03:20:05;2.83;;;1.65;;
24008;SDS011;12217;50.792;4.372;2022-10-26T03:22:32;4.07;;;1.63;;
24008;SDS011;12217;50.792;4.372;2022-10-26T03:24:57;4.40;;;1.55;;
24008;SDS011;12217;50.792;4.372;2022-10-26T03:27:23;3.72;;;1.48;;
24008;SDS011;12217;50.792;4.372;2022-10-26T03:29:49;3.67;;;1.40;;
24008;SDS011;12217;50.792;4.372;2022-10-26T03:32:14;3.92;;;1.90;;
24008;SDS011;12217;50.792;4.372;2022-10-26T03:34:40;6.22;;;1.77;;
24008;SDS011;12217;50.792;4.372;2022-10-26T03:37:05;4.97;;;1.70;;
24008;SDS011;12217;50.792;4.372;2022-10-26T03:39:31;4.78;;;1.30;;
24008;SDS011;12217;50.792;4.372;2022-10-26T03:41:57;4.47;;;1.65;;
24008;SDS011;12217;50.792;4.372;2022-10-26T03:44:23;4.72;;;1.48;;
24008;SDS011;12217;50.792;4.372;2022-10-26T03:46:49;4.05;;;1.48;;
24008;SDS011;12217;50.792;4.372;2022-10-26T03:49:15;4.78;;;1.63;;
24008;SDS011;12217;50.792;4.372;2022-10-26T03:51:40;4.72;;;1.63;;
24008;SDS011;12217;50.792;4.372;2022-10-26T03:54:06;4.35;;;1.95;;
24008;SDS011;12217;50.792;4.372;2022-10-26T03:56:32;6.53;;;2.00;;
24008;SDS011;12217;50.792;4.372;2022-10-26T03:58:58;5.07;;;1.83;;
24008;SDS011;12217;50.792;4.372;2022-10-26T04:01:23;5.20;;;1.95;;
24008;SDS011;12217;50.792;4.372;2022-10-26T04:03:49;6.38;;;1.90;;
24008;SDS011;12217;50.792;4.372;2022-10-26T04:06:15;7.60;;;1.90;;
24008;SDS011;12217;50.792;4.372;2022-10-26T04:08:40;6.35;;;1.95;;
24008;SDS011;12217;50.792;4.372;2022-10-26T04:11:06;3.42;;;1.58;;
24008;SDS011;12217;50.792;4.372;2022-10-26T04:13:32;6.10;;;1.73;;
24008;SDS011;12217;50.792;4.372;2022-10-26T04:15:57;4.57;;;1.60;;
24008;SDS011;12217;50.792;4.372;2022-10-26T04:18:23;6.32;;;1.67;;
24008;SDS011;12217;50.792;4.372;2022-10-26T04:20:49;5.03;;;1.80;;
24008;SDS011;12217;50.792;4.372;2022-10-26T04:23:15;3.70;;;1.65;;
24008;SDS011;12217;50.792;4.372;2022-10-26T04:25:42;5.53;;;2.00;;
24008;SDS011;12217;50.792;4.372;2022-10-26T04:28:08;5.07;;;2.00;;
24008;SDS011;12217;50.792;4.372;2022-10-26T04:30:35;6.90;;;2.47;;
24008;SDS011;12217;50.792;4.372;2022-10-26T04:33:02;5.55;;;2.40;;
24008;SDS011;12217;50.792;4.372;2022-10-26T04:35:28;5.45;;;2.60;;
24008;SDS011;12217;50.792;4.372;2022-10-26T04:38:00;6.15;;;2.65;;
24008;SDS011;12217;50.792;4.372;2022-10-26T04:40:28;6.55;;;2.65;;
24008;SDS011;12217;50.792;4.372;2022-10-26T04:42:55;5.93;;;2.55;;
24008;SDS011;12217;50.792;4.372;2022-10-26T04:45:21;4.03;;;2.65;;
24008;SDS011;12217;50.792;4.372;2022-10-26T04:47:47;5.18;;;2.40;;
24008;SDS011;12217;50.792;4.372;2022-10-26T04:50:22;4.38;;;2.55;;
24008;SDS011;12217;50.792;4.372;2022-10-26T04:52:49;6.13;;;2.30;;
24008;SDS011;12217;50.792;4.372;2022-10-26T04:55:15;4.15;;;2.33;;
24008;SDS011;12217;50.792;4.372;2022-10-26T04:57:42;6.82;;;2.20;;
24008;SDS011;12217;50.792;4.372;2022-10-26T05:00:09;6.72;;;2.38;;
24008;SDS011;12217;50.792;4.372;2022-10-26T05:02:35;6.20;;;2.40;;
24008;SDS011;12217;50.792;4.372;2022-10-26T05:05:01;4.22;;;1.70;;
24008;SDS011;12217;50.792;4.372;2022-10-26T05:07:26;5.78;;;2.28;;
24008;SDS011;12217;50.792;4.372;2022-10-26T05:09:52;3.30;;;2.00;;
24008;SDS011;12217;50.792;4.372;2022-10-26T05:12:17;5.32;;;2.22;;
24008;SDS011;12217;50.792;4.372;2022-10-26T05:14:43;5.60;;;2.13;;
24008;SDS011;12217;50.792;4.372;2022-10-26T05:17:09;5.25;;;2.22;;
24008;SDS011;12217;50.792;4.372;2022-10-26T05:19:34;5.75;;;2.55;;
24008;SDS011;12217;50.792;4.372;2022-10-26T05:22:00;6.38;;;2.72;;
24008;SDS011;12217;50.792;4.372;2022-10-26T05:24:26;3.60;;;2.03;;
24008;SDS011;12217;50.792;4.372;2022-10-26T05:26:51;5.03;;;2.05;;
24008;SDS011;12217;50.792;4.372;2022-10-26T05:29:17;8.50;;;2.28;;
24008;SDS011;12217;50.792;4.372;2022-10-26T05:31:43;3.97;;;2.15;;
24008;SDS011;12217;50.792;4.372;2022-10-26T05:34:08;6.10;;;2.10;;
24008;SDS011;12217;50.792;4.372;2022-10-26T05:36:34;5.32;;;2.30;;
24008;SDS011;12217;50.792;4.372;2022-10-26T05:38:59;3.95;;;1.90;;
24008;SDS011;12217;50.792;4.372;2022-10-26T05:41:25;5.65;;;2.45;;
24008;SDS011;12217;50.792;4.372;2022-10-26T05:43:51;9.32;;;2.50;;
24008;SDS011;12217;50.792;4.372;2022-10-26T05:46:16;5.57;;;2.63;;
24008;SDS011;12217;50.792;4.372;2022-10-26T05:48:42;6.15;;;2.53;;
24008;SDS011;12217;50.792;4.372;2022-10-26T05:51:08;6.72;;;2.30;;
24008;SDS011;12217;50.792;4.372;2022-10-26T05:53:34;5.28;;;2.47;;
24008;SDS011;12217;50.792;4.372;2022-10-26T05:56:00;4.93;;;2.53;;
24008;SDS011;12217;50.792;4.372;2022-10-26T05:58:26;4.00;;;2.58;;
24008;SDS011;12217;50.792;4.372;2022-10-26T06:01:08;6.47;;;2.47;;
24008;SDS011;12217;50.792;4.372;2022-10-26T06:06:26;5.88;;;2.65;;
24008;SDS011;12217;50.792;4.372;2022-10-26T06:09:00;7.05;;;2.75;;
24008;SDS011;12217;50.792;4.372;2022-10-26T06:11:26;7.95;;;2.50;;
24008;SDS011;12217;50.792;4.372;2022-10-26T06:13:52;7.07;;;2.63;;
24008;SDS011;12217;50.792;4.372;2022-10-26T06:27:26;7.30;;;2.95;;
24008;SDS011;12217;50.792;4.372;2022-10-26T06:30:05;7.15;;;3.00;;
24008;SDS011;12217;50.792;4.372;2022-10-26T06:32:34;8.90;;;3.25;;
24008;SDS011;12217;50.792;4.372;2022-10-26T06:38:01;9.02;;;3.10;;
24008;SDS011;12217;50.792;4.372;2022-10-26T06:40:30;5.50;;;3.30;;
24008;SDS011;12217;50.792;4.372;2022-10-26T06:42:57;9.80;;;3.47;;
24008;SDS011;12217;50.792;4.372;2022-10-26T06:45:23;6.22;;;3.55;;
24008;SDS011;12217;50.792;4.372;2022-10-26T06:48:23;8.75;;;3.28;;
24008;SDS011;12217;50.792;4.372;2022-10-26T06:50:47;6.72;;;3.75;;
24008;SDS011;12217;50.792;4.372;2022-10-26T06:56:06;8.95;;;3.13;;
24008;SDS011;12217;50.792;4.372;2022-10-26T06:58:35;12.85;;;3.63;;
24008;SDS011;12217;50.792;4.372;2022-10-26T07:01:02;9.15;;;3.40;;
24008;SDS011;12217;50.792;4.372;2022-10-26T07:03:28;6.88;;;3.67;;
24008;SDS011;12217;50.792;4.372;2022-10-26T07:05:54;11.25;;;3.40;;
24008;SDS011;12217;50.792;4.372;2022-10-26T07:08:19;10.50;;;3.97;;
24008;SDS011;12217;50.792;4.372;2022-10-26T07:10:45;8.85;;;3.80;;
24008;SDS011;12217;50.792;4.372;2022-10-26T07:13:11;10.40;;;3.80;;
24008;SDS011;12217;50.792;4.372;2022-10-26T07:15:37;10.38;;;3.85;;
24008;SDS011;12217;50.792;4.372;2022-10-26T07:18:05;11.98;;;3.38;;
24008;SDS011;12217;50.792;4.372;2022-10-26T07:20:36;7.43;;;3.50;;
24008;SDS011;12217;50.792;4.372;2022-10-26T07:23:03;8.18;;;3.03;;
24008;SDS011;12217;50.792;4.372;2022-10-26T07:25:35;8.02;;;3.15;;
24008;SDS011;12217;50.792;4.372;2022-10-26T07:28:03;8.32;;;3.00;;
24008;SDS011;12217;50.792;4.372;2022-10-26T07:30:29;6.18;;;2.83;;
24008;SDS011;12217;50.792;4.372;2022-10-26T07:33:01;5.63;;;2.92;;
24008;SDS011;12217;50.792;4.372;2022-10-26T07:35:32;6.57;;;2.58;;
24008;SDS011;12217;50.792;4.372;2022-10-26T07:37:58;8.20;;;2.55;;
24008;SDS011;12217;50.792;4.372;2022-10-26T07:40:25;7.22;;;2.50;;
24008;SDS011;12217;50.792;4.372;2022-10-26T07:42:51;8.68;;;2.67;;
24008;SDS011;12217;50.792;4.372;2022-10-26T07:45:17;5.28;;;2.55;;
24008;SDS011;12217;50.792;4.372;2022-10-26T07:47:43;5.30;;;2.75;;
24008;SDS011;12217;50.792;4.372;2022-10-26T07:50:10;5.75;;;2.60;;
24008;SDS011;12217;50.792;4.372;2022-10-26T07:52:37;7.70;;;2.70;;
24008;SDS011;12217;50.792;4.372;2022-10-26T07:55:05;5.97;;;2.20;;
24008;SDS011;12217;50.792;4.372;2022-10-26T07:57:32;6.60;;;2.17;;
24008;SDS011;12217;50.792;4.372;2022-10-26T07:59:58;5.88;;;2.42;;
24008;SDS011;12217;50.792;4.372;2022-10-26T08:02:24;3.97;;;2.20;;
24008;SDS011;12217;50.792;4.372;2022-10-26T08:04:49;6.78;;;3.10;;
24008;SDS011;12217;50.792;4.372;2022-10-26T08:07:15;5.68;;;2.35;;
24008;SDS011;12217;50.792;4.372;2022-10-26T08:09:41;5.68;;;2.30;;
24008;SDS011;12217;50.792;4.372;2022-10-26T08:12:07;7.13;;;2.60;;
24008;SDS011;12217;50.792;4.372;2022-10-26T08:14:32;5.07;;;2.22;;
24008;SDS011;12217;50.792;4.372;2022-10-26T08:16:58;7.75;;;2.20;;
24008;SDS011;12217;50.792;4.372;2022-10-26T08:19:24;7.65;;;2.22;;
24008;SDS011;12217;50.792;4.372;2022-10-26T08:21:49;6.50;;;2.00;;
24008;SDS011;12217;50.792;4.372;2022-10-26T08:24:15;4.43;;;2.42;;
24008;SDS011;12217;50.792;4.372;2022-10-26T08:26:41;4.38;;;2.22;;
24008;SDS011;12217;50.792;4.372;2022-10-26T08:29:07;10.25;;;2.20;;
24008;SDS011;12217;50.792;4.372;2022-10-26T08:31:33;7.20;;;2.10;;
24008;SDS011;12217;50.792;4.372;2022-10-26T08:33:58;5.15;;;2.13;;
24008;SDS011;12217;50.792;4.372;2022-10-26T08:36:24;3.97;;;2.25;;
24008;SDS011;12217;50.792;4.372;2022-10-26T08:38:52;7.28;;;1.92;;
24008;SDS011;12217;50.792;4.372;2022-10-26T08:41:19;6.47;;;2.00;;
24008;SDS011;12217;50.792;4.372;2022-10-26T08:44:00;4.65;;;2.22;;
24008;SDS011;12217;50.792;4.372;2022-10-26T08:46:49;4.55;;;1.80;;
24008;SDS011;12217;50.792;4.372;2022-10-26T08:49:38;3.80;;;2.00;;
24008;SDS011;12217;50.792;4.372;2022-10-26T08:52:10;6.55;;;2.13;;
24008;SDS011;12217;50.792;4.372;2022-10-26T08:54:41;3.05;;;1.75;;
24008;SDS011;12217;50.792;4.372;2022-10-26T08:57:20;5.00;;;1.90;;
24008;SDS011;12217;50.792;4.372;2022-10-26T09:00:02;6.22;;;2.17;;
24008;SDS011;12217;50.792;4.372;2022-10-26T09:02:35;6.53;;;1.80;;
24008;SDS011;12217;50.792;4.372;2022-10-26T09:05:01;4.25;;;1.80;;
24008;SDS011;12217;50.792;4.372;2022-10-26T09:10:18;7.65;;;2.00;;
24008;SDS011;12217;50.792;4.372;2022-10-26T09:18:08;7.30;;;2.20;;
24008;SDS011;12217;50.792;4.372;2022-10-26T09:26:28;8.35;;;1.90;;
24008;SDS011;12217;50.792;4.372;2022-10-26T09:29:00;6.28;;;2.72;;
24008;SDS011;12217;50.792;4.372;2022-10-26T09:31:29;3.70;;;1.55;;
24008;SDS011;12217;50.792;4.372;2022-10-26T09:33:59;4.40;;;1.83;;
24008;SDS011;12217;50.792;4.372;2022-10-26T09:36:28;5.75;;;1.77;;
24008;SDS011;12217;50.792;4.372;2022-10-26T09:38:59;4.82;;;1.88;;
24008;SDS011;12217;50.792;4.372;2022-10-26T09:41:44;3.75;;;2.00;;
24008;SDS011;12217;50.792;4.372;2022-10-26T09:44:24;9.63;;;1.95;;
24008;SDS011;12217;50.792;4.372;2022-10-26T09:47:19;7.53;;;2.10;;
24008;SDS011;12217;50.792;4.372;2022-10-26T09:50:45;6.78;;;1.83;;
24008;SDS011;12217;50.792;4.372;2022-10-26T09:52:50;4.57;;;1.75;;
24008;SDS011;12217;50.792;4.372;2022-10-26T09:55:15;3.88;;;1.83;;
24008;SDS011;12217;50.792;4.372;2022-10-26T09:57:42;9.13;;;1.90;;
24008;SDS011;12217;50.792;4.372;2022-10-26T10:00:14;5.80;;;1.67;;
24008;SDS011;12217;50.792;4.372;2022-10-26T10:02:59;6.18;;;2.20;;
24008;SDS011;12217;50.792;4.372;2022-10-26T10:05:31;6.80;;;1.70;;
24008;SDS011;12217;50.792;4.372;2022-10-26T10:08:14;3.40;;;1.52;;
24008;SDS011;12217;50.792;4.372;2022-10-26T10:11:01;6.35;;;1.80;;
24008;SDS011;12217;50.792;4.372;2022-10-26T10:13:31;5.25;;;1.55;;
24008;SDS011;12217;50.792;4.372;2022-10-26T10:18:39;6.22;;;1.70;;
24008;SDS011;12217;50.792;4.372;2022-10-26T10:21:06;6.40;;;1.80;;
24008;SDS011;12217;50.792;4.372;2022-10-26T10:23:51;5.57;;;1.70;;
24008;SDS011;12217;50.792;4.372;2022-10-26T10:26:17;1.95;;;1.20;;
24008;SDS011;12217;50.792;4.372;2022-10-26T10:28:43;4.15;;;1.60;;
24008;SDS011;12217;50.792;4.372;2022-10-26T10:31:29;5.32;;;1.80;;
24008;SDS011;12217;50.792;4.372;2022-10-26T10:33:56;3.75;;;1.67;;
24008;SDS011;12217;50.792;4.372;2022-10-26T10:36:23;5.03;;;1.60;;
24008;SDS011;12217;50.792;4.372;2022-10-26T10:38:54;4.00;;;1.55;;
24008;SDS011;12217;50.792;4.372;2022-10-26T10:41:22;4.93;;;1.70;;
24008;SDS011;12217;50.792;4.372;2022-10-26T10:43:58;7.47;;;1.50;;
24008;SDS011;12217;50.792;4.372;2022-10-26T10:46:25;5.85;;;1.80;;
24008;SDS011;12217;50.792;4.372;2022-10-26T10:48:52;4.07;;;1.75;;
24008;SDS011;12217;50.792;4.372;2022-10-26T10:51:25;6.18;;;1.60;;
24008;SDS011;12217;50.792;4.372;2022-10-26T10:53:54;8.10;;;5.18;;
24008;SDS011;12217;50.792;4.372;2022-10-26T10:58:55;10.35;;;4.85;;
24008;SDS011;12217;50.792;4.372;2022-10-26T11:01:43;9.70;;;5.85;;
24008;SDS011;12217;50.792;4.372;2022-10-26T11:07:31;3.17;;;1.92;;
24008;SDS011;12217;50.792;4.372;2022-10-26T11:10:10;6.88;;;3.00;;
24008;SDS011;12217;50.792;4.372;2022-10-26T11:12:46;9.32;;;5.32;;
24008;SDS011;12217;50.792;4.372;2022-10-26T11:15:17;10.88;;;5.93;;
24008;SDS011;12217;50.792;4.372;2022-10-26T11:17:49;7.05;;;3.53;;
24008;SDS011;12217;50.792;4.372;2022-10-26T11:20:24;6.50;;;2.65;;
24008;SDS011;12217;50.792;4.372;2022-10-26T11:25:43;4.13;;;1.80;;
24008;SDS011;12217;50.792;4.372;2022-10-26T11:28:18;6.55;;;2.80;;
24008;SDS011;12217;50.792;4.372;2022-10-26T11:30:56;8.40;;;5.28;;
24008;SDS011;12217;50.792;4.372;2022-10-26T11:33:28;10.68;;;4.93;;
24008;SDS011;12217;50.792;4.372;2022-10-26T11:38:41;8.05;;;2.58;;
24008;SDS011;12217;50.792;4.372;2022-10-26T11:41:30;4.85;;;1.67;;
24008;SDS011;12217;50.792;4.372;2022-10-26T11:46:55;4.68;;;1.80;;
24008;SDS011;12217;50.792;4.372;2022-10-26T11:49:45;5.22;;;1.80;;
24008;SDS011;12217;50.792;4.372;2022-10-26T11:55:04;5.22;;;2.67;;
24008;SDS011;12217;50.792;4.372;2022-10-26T11:57:32;6.55;;;2.97;;
24008;SDS011;12217;50.792;4.372;2022-10-26T12:00:02;5.32;;;2.30;;
24008;SDS011;12217;50.792;4.372;2022-10-26T12:02:37;3.38;;;1.63;;
24008;SDS011;12217;50.792;4.372;2022-10-26T12:07:39;4.72;;;1.70;;
24008;SDS011;12217;50.792;4.372;2022-10-26T12:10:22;5.18;;;2.10;;
24008;SDS011;12217;50.792;4.372;2022-10-26T12:18:22;4.85;;;1.38;;
24008;SDS011;12217;50.792;4.372;2022-10-26T12:21:00;2.35;;;1.38;;
24008;SDS011;12217;50.792;4.372;2022-10-26T12:23:32;5.18;;;1.63;;
24008;SDS011;12217;50.792;4.372;2022-10-26T12:29:15;5.13;;;1.55;;
24008;SDS011;12217;50.792;4.372;2022-10-26T12:31:47;2.55;;;1.50;;
24008;SDS011;12217;50.792;4.372;2022-10-26T12:34:13;7.10;;;1.85;;
24008;SDS011;12217;50.792;4.372;2022-10-26T12:40:44;5.28;;;1.30;;
24008;SDS011;12217;50.792;4.372;2022-10-26T12:45:38;2.50;;;1.50;;
24008;SDS011;12217;50.792;4.372;2022-10-26T12:48:20;4.10;;;1.40;;
24008;SDS011;12217;50.792;4.372;2022-10-26T12:50:46;2.97;;;1.30;;
24008;SDS011;12217;50.792;4.372;2022-10-26T12:53:12;5.55;;;1.40;;
24008;SDS011;12217;50.792;4.372;2022-10-26T13:08:51;7.13;;;1.60;;
24008;SDS011;12217;50.792;4.372;2022-10-26T13:11:29;6.38;;;1.60;;
24008;SDS011;12217;50.792;4.372;2022-10-26T13:14:01;5.82;;;1.60;;
24008;SDS011;12217;50.792;4.372;2022-10-26T13:16:29;4.00;;;1.40;;
24008;SDS011;12217;50.792;4.372;2022-10-26T13:18:55;5.05;;;1.33;;
24008;SDS011;12217;50.792;4.372;2022-10-26T13:21:23;5.07;;;1.95;;
24008;SDS011;12217;50.792;4.372;2022-10-26T13:26:19;3.78;;;1.30;;
24008;SDS011;12217;50.792;4.372;2022-10-26T13:28:48;2.67;;;1.30;;
24008;SDS011;12217;50.792;4.372;2022-10-26T13:39:08;7.25;;;1.17;;
24008;SDS011;12217;50.792;4.372;2022-10-26T13:41:40;3.95;;;1.27;;
24008;SDS011;12217;50.792;4.372;2022-10-26T13:44:12;5.50;;;1.30;;
24008;SDS011;12217;50.792;4.372;2022-10-26T13:46:46;4.55;;;1.20;;
24008;SDS011;12217;50.792;4.372;2022-10-26T13:49:34;3.78;;;1.38;;
24008;SDS011;12217;50.792;4.372;2022-10-26T13:52:04;4.97;;;1.38;;
24008;SDS011;12217;50.792;4.372;2022-10-26T13:54:52;3.55;;;1.20;;
24008;SDS011;12217;50.792;4.372;2022-10-26T14:00:21;3.80;;;1.50;;
24008;SDS011;12217;50.792;4.372;2022-10-26T14:02:47;5.75;;;1.58;;
24008;SDS011;12217;50.792;4.372;2022-10-26T14:05:16;5.82;;;1.20;;
24008;SDS011;12217;50.792;4.372;2022-10-26T14:07:53;3.47;;;1.25;;
24008;SDS011;12217;50.792;4.372;2022-10-26T14:10:25;5.38;;;1.20;;
24008;SDS011;12217;50.792;4.372;2022-10-26T14:12:53;7.20;;;1.73;;
24008;SDS011;12217;50.792;4.372;2022-10-26T14:15:26;5.57;;;1.38;;
24008;SDS011;12217;50.792;4.372;2022-10-26T14:17:54;4.57;;;1.30;;
24008;SDS011;12217;50.792;4.372;2022-10-26T14:20:22;7.03;;;1.50;;
24008;SDS011;12217;50.792;4.372;2022-10-26T14:22:50;3.38;;;1.00;;
24008;SDS011;12217;50.792;4.372;2022-10-26T14:25:17;5.07;;;1.55;;
24008;SDS011;12217;50.792;4.372;2022-10-26T14:27:43;3.85;;;1.23;;
24008;SDS011;12217;50.792;4.372;2022-10-26T14:30:26;19.35;;;1.70;;
24008;SDS011;12217;50.792;4.372;2022-10-26T14:32:53;6.05;;;1.33;;
24008;SDS011;12217;50.792;4.372;2022-10-26T14:35:21;4.13;;;1.15;;
24008;SDS011;12217;50.792;4.372;2022-10-26T14:37:57;4.50;;;1.45;;
24008;SDS011;12217;50.792;4.372;2022-10-26T14:40:29;4.00;;;1.40;;
24008;SDS011;12217;50.792;4.372;2022-10-26T14:42:59;5.15;;;1.20;;
24008;SDS011;12217;50.792;4.372;2022-10-26T14:47:58;3.60;;;1.42;;
24008;SDS011;12217;50.792;4.372;2022-10-26T15:40:28;4.95;;;1.55;;
24008;SDS011;12217;50.792;4.372;2022-10-26T15:42:57;3.22;;;1.27;;
24008;SDS011;12217;50.792;4.372;2022-10-26T15:45:28;4.25;;;1.42;;
24008;SDS011;12217;50.792;4.372;2022-10-26T15:48:03;5.28;;;1.38;;
24008;SDS011;12217;50.792;4.372;2022-10-26T15:50:48;2.15;;;1.15;;
24008;SDS011;12217;50.792;4.372;2022-10-26T15:53:16;3.35;;;1.30;;
24008;SDS011;12217;50.792;4.372;2022-10-26T15:55:47;5.60;;;1.58;;
24008;SDS011;12217;50.792;4.372;2022-10-26T15:58:15;3.20;;;1.45;;
24008;SDS011;12217;50.792;4.372;2022-10-26T16:00:41;3.08;;;1.27;;
24008;SDS011;12217;50.792;4.372;2022-10-26T16:03:10;8.68;;;1.20;;
24008;SDS011;12217;50.792;4.372;2022-10-26T16:05:38;6.68;;;1.45;;
24008;SDS011;12217;50.792;4.372;2022-10-26T16:08:04;8.80;;;1.75;;
24008;SDS011;12217;50.792;4.372;2022-10-26T16:10:29;4.20;;;1.55;;
24008;SDS011;12217;50.792;4.372;2022-10-26T16:12:55;6.65;;;1.85;;
24008;SDS011;12217;50.792;4.372;2022-10-26T16:15:23;3.10;;;1.20;;
24008;SDS011;12217;50.792;4.372;2022-10-26T16:17:49;5.70;;;1.70;;
24008;SDS011;12217;50.792;4.372;2022-10-26T16:20:22;4.93;;;1.60;;
24008;SDS011;12217;50.792;4.372;2022-10-26T16:22:49;5.03;;;1.60;;
24008;SDS011;12217;50.792;4.372;2022-10-26T16:25:16;2.75;;;1.35;;
24008;SDS011;12217;50.792;4.372;2022-10-26T16:27:44;4.05;;;1.42;;
24008;SDS011;12217;50.792;4.372;2022-10-26T16:30:11;4.10;;;1.60;;
24008;SDS011;12217;50.792;4.372;2022-10-26T16:32:41;4.93;;;1.58;;
24008;SDS011;12217;50.792;4.372;2022-10-26T16:35:07;6.65;;;1.70;;
24008;SDS011;12217;50.792;4.372;2022-10-26T16:37:34;6.53;;;1.55;;
24008;SDS011;12217;50.792;4.372;2022-10-26T16:39:59;7.47;;;1.58;;
24008;SDS011;12217;50.792;4.372;2022-10-26T16:42:25;4.10;;;1.50;;
24008;SDS011;12217;50.792;4.372;2022-10-26T16:44:52;10.52;;;1.88;;
24008;SDS011;12217;50.792;4.372;2022-10-26T16:47:18;4.22;;;1.42;;
24008;SDS011;12217;50.792;4.372;2022-10-26T16:49:43;4.88;;;1.38;;
24008;SDS011;12217;50.792;4.372;2022-10-26T16:52:09;4.82;;;2.00;;
24008;SDS011;12217;50.792;4.372;2022-10-26T16:54:36;6.22;;;1.60;;
24008;SDS011;12217;50.792;4.372;2022-10-26T16:57:01;6.22;;;1.50;;
24008;SDS011;12217;50.792;4.372;2022-10-26T16:59:27;6.90;;;1.60;;
24008;SDS011;12217;50.792;4.372;2022-10-26T17:01:53;6.45;;;1.98;;
24008;SDS011;12217;50.792;4.372;2022-10-26T17:04:19;4.57;;;1.70;;
24008;SDS011;12217;50.792;4.372;2022-10-26T17:06:45;6.68;;;1.50;;
24008;SDS011;12217;50.792;4.372;2022-10-26T17:09:10;6.22;;;1.67;;
24008;SDS011;12217;50.792;4.372;2022-10-26T17:11:36;5.18;;;1.67;;
24008;SDS011;12217;50.792;4.372;2022-10-26T17:14:01;3.60;;;1.48;;
24008;SDS011;12217;50.792;4.372;2022-10-26T17:16:27;7.28;;;1.80;;
24008;SDS011;12217;50.792;4.372;2022-10-26T17:18:52;5.93;;;1.48;;
24008;SDS011;12217;50.792;4.372;2022-10-26T17:21:19;5.95;;;1.83;;
24008;SDS011;12217;50.792;4.372;2022-10-26T17:23:52;5.10;;;2.10;;
24008;SDS011;12217;50.792;4.372;2022-10-26T17:26:17;5.55;;;1.90;;
24008;SDS011;12217;50.792;4.372;2022-10-26T17:28:43;5.35;;;1.98;;
24008;SDS011;12217;50.792;4.372;2022-10-26T17:31:11;5.55;;;1.83;;
24008;SDS011;12217;50.792;4.372;2022-10-26T17:33:39;5.97;;;2.53;;
24008;SDS011;12217;50.792;4.372;2022-10-26T17:36:07;6.60;;;2.15;;
24008;SDS011;12217;50.792;4.372;2022-10-26T17:38:37;7.03;;;1.90;;
24008;SDS011;12217;50.792;4.372;2022-10-26T17:41:06;9.38;;;2.58;;
24008;SDS011;12217;50.792;4.372;2022-10-26T17:43:34;4.43;;;1.98;;
24008;SDS011;12217;50.792;4.372;2022-10-26T17:46:05;8.88;;;2.30;;
24008;SDS011;12217;50.792;4.372;2022-10-26T17:48:32;6.28;;;2.00;;
24008;SDS011;12217;50.792;4.372;2022-10-26T17:50:58;5.38;;;2.10;;
24008;SDS011;12217;50.792;4.372;2022-10-26T17:53:25;5.25;;;2.10;;
24008;SDS011;12217;50.792;4.372;2022-10-26T17:56:00;4.50;;;2.00;;
24008;SDS011;12217;50.792;4.372;2022-10-26T17:58:27;5.32;;;2.38;;
24008;SDS011;12217;50.792;4.372;2022-10-26T18:00:53;4.25;;;2.05;;
24008;SDS011;12217;50.792;4.372;2022-10-26T18:03:19;5.80;;;2.38;;
24008;SDS011;12217;50.792;4.372;2022-10-26T18:05:48;7.10;;;2.85;;